Map

Track Data

SID SEASON NUMBER BASIN SUBBASIN NAME ISO_TIME NATURE LAT LON WMO_WIND WMO_PRES WMO_AGENCY TRACK_TYPE DIST2LAND LANDFALL IFLAG USA_AGENCY USA_ATCF_ID USA_LAT USA_LON USA_RECORD USA_STATUS USA_WIND USA_PRES USA_SSHS USA_R34_NE USA_R34_SE USA_R34_SW USA_R34_NW USA_R50_NE USA_R50_SE USA_R50_SW USA_R50_NW USA_R64_NE USA_R64_SE USA_R64_SW USA_R64_NW USA_POCI USA_ROCI USA_RMW USA_EYE TOKYO_LAT TOKYO_LON TOKYO_GRADE TOKYO_WIND TOKYO_PRES TOKYO_R50_DIR TOKYO_R50_LONG TOKYO_R50_SHORT TOKYO_R30_DIR TOKYO_R30_LONG TOKYO_R30_SHORT TOKYO_LAND CMA_LAT CMA_LON CMA_CAT CMA_WIND CMA_PRES HKO_LAT HKO_LON HKO_CAT HKO_WIND HKO_PRES NEWDELHI_LAT NEWDELHI_LON NEWDELHI_GRADE NEWDELHI_WIND NEWDELHI_PRES NEWDELHI_CI NEWDELHI_DP NEWDELHI_POCI REUNION_LAT REUNION_LON REUNION_TYPE REUNION_WIND REUNION_PRES REUNION_TNUM REUNION_CI REUNION_RMW REUNION_R34_NE REUNION_R34_SE REUNION_R34_SW REUNION_R34_NW REUNION_R50_NE REUNION_R50_SE REUNION_R50_SW REUNION_R50_NW REUNION_R64_NE REUNION_R64_SE REUNION_R64_SW REUNION_R64_NW BOM_LAT BOM_LON BOM_TYPE BOM_WIND BOM_PRES BOM_TNUM BOM_CI BOM_RMW BOM_R34_NE BOM_R34_SE BOM_R34_SW BOM_R34_NW BOM_R50_NE BOM_R50_SE BOM_R50_SW BOM_R50_NW BOM_R64_NE BOM_R64_SE BOM_R64_SW BOM_R64_NW BOM_ROCI BOM_POCI BOM_EYE BOM_POS_METHOD BOM_PRES_METHOD NADI_LAT NADI_LON NADI_CAT NADI_WIND NADI_PRES WELLINGTON_LAT WELLINGTON_LON WELLINGTON_WIND WELLINGTON_PRES DS824_LAT DS824_LON DS824_STAGE DS824_WIND DS824_PRES TD9636_LAT TD9636_LON TD9636_STAGE TD9636_WIND TD9636_PRES TD9635_LAT TD9635_LON TD9635_WIND TD9635_PRES TD9635_ROCI NEUMANN_LAT NEUMANN_LON NEUMANN_CLASS NEUMANN_WIND NEUMANN_PRES MLC_LAT MLC_LON MLC_CLASS MLC_WIND MLC_PRES USA_GUST BOM_GUST BOM_GUST_PER REUNION_GUST REUNION_GUST_PER USA_SEAHGT USA_SEARAD_NE USA_SEARAD_SE USA_SEARAD_SW USA_SEARAD_NW STORM_SPEED STORM_DIR
1958189N11149 1958 48 WP MM VIOLA 1958-07-07 18:00:00 TS 10.7000 148.700 main 1441 1436 __O___________ -1 10.7000 148.700 0 1006 11 274
1958189N11149 1958 48 WP MM VIOLA 1958-07-07 21:00:00 TS 10.7376 148.160 main 1436 1435 __P___________ -1 10.7376 148.160 0 1003 11 275
1958189N11149 1958 48 WP MM VIOLA 1958-07-08 00:00:00 TS 10.8000 147.550 1006 tokyo main 1445 1445 OOO______OOO__ jtwc_wp WP061958 10.8000 147.500 30 -1 10.8000 147.600 2 1006 0 0 0 10.8000 147.600 1 29 1000 10.8000 147.500 TC 30 10.8000 147.500 1 30 10.8000 147.500 30 1003 180 12 280
1958189N11149 1958 48 WP MM VIOLA 1958-07-08 03:00:00 TS 10.9455 147.005 main 1456 1456 PPP______PPP__ WP061958 10.9578 146.970 32 -1 10.9903 147.013 2 1003 0 0 10.9125 147.020 1 33 999 10.9578 146.970 TC 32 10.9301 147.074 1 32 10.9578 146.970 32 1001 210 11 287
1958189N11149 1958 48 WP MM VIOLA 1958-07-08 06:00:00 TS 11.1107 146.523 1000 tokyo main 1479 1479 OOO______OPO__ jtwc_wp WP061958 11.1000 146.500 35 0 11.2000 146.500 9 1000 0 0 0 11.1000 146.500 2 38 998 11.1000 146.500 TC 35 11.0679 146.648 1 35 11.1000 146.500 35 1000 240 9 292
1958189N11149 1958 48 WP MM VIOLA 1958-07-08 09:00:00 TS 11.2898 146.140 main 1502 1502 PPP______PPP__ WP061958 11.2274 146.127 37 0 11.4424 146.112 9 997 0 0 11.3923 146.120 2 43 996 11.2274 146.127 TC 37 11.2217 146.223 1 37 11.2274 146.127 37 998 210 8 299
1958189N11149 1958 48 WP MM VIOLA 1958-07-08 12:00:00 TS 11.5000 145.800 995 tokyo main 1526 1526 OOO______OOO__ jtwc_wp WP061958 11.4000 145.800 40 0 11.7000 145.800 9 995 0 0 0 11.7000 145.800 3 48 995 11.4000 145.800 TC 40 11.4000 145.800 2 40 11.4000 145.800 40 996 180 8 305
1958189N11149 1958 48 WP MM VIOLA 1958-07-08 15:00:00 TS 11.7573 145.452 main 1562 1562 PPP______PPP__ WP061958 11.6924 145.458 42 0 11.9499 145.507 9 995 0 0 11.9075 145.450 3 48 995 11.6924 145.458 TC 42 11.6090 145.382 2 42 11.6924 145.458 42 994 180 9 307
1958189N11149 1958 48 WP MM VIOLA 1958-07-08 18:00:00 TS 12.0246 145.097 995 tokyo main 1588 1588 OOO______OPO__ jtwc_wp WP061958 12.0000 145.100 45 0 12.2000 145.200 9 995 0 0 0 12.1000 145.100 3 48 995 12.0000 145.100 TC 45 11.8475 144.983 2 45 12.0000 145.100 45 993 180 9 304
1958189N11149 1958 48 WP MM VIOLA 1958-07-08 21:00:00 TS 12.2571 144.684 main 1627 1627 PPP______PPP__ WP061958 12.2001 144.662 47 0 12.4726 144.778 9 995 0 0 12.3575 144.720 3 48 995 12.2001 144.662 TC 47 12.1122 144.617 2 47 12.2001 144.662 47 991 210 9 302
1958189N11149 1958 48 WP MM VIOLA 1958-07-09 00:00:00 TS 12.4833 144.333 995 tokyo main 1655 1655 OOO______OOO__ jtwc_wp WP061958 12.4000 144.300 50 0 12.7000 144.400 9 995 0 0 0 12.6000 144.400 3 48 995 12.4000 144.300 TC 50 12.4000 144.300 2 50 12.4000 144.300 50 990 240 7 313
1958189N11149 1958 48 WP MM VIOLA 1958-07-09 03:00:00 TS 12.7078 144.190 main 1679 1679 PPP______PPP__ WP061958 12.6773 144.185 55 0 12.7773 144.250 9 995 0 0 12.7348 144.250 3 48 994 12.6773 144.185 TC 55 12.7029 144.086 2 55 12.6773 144.185 54 987 240 6 332
1958189N11149 1958 48 WP MM VIOLA 1958-07-09 06:00:00 TS 12.9711 144.069 995 tokyo main 1714 1714 OOO______OPO__ jtwc_wp WP061958 13.0000 144.100 60 0 12.9000 144.100 9 995 0 0 0 12.9000 144.100 3 48 994 13.0000 144.100 TC 60 13.0267 143.914 2 60 13.0000 144.100 58 984 240 7 328
1958189N11149 1958 48 WP MM VIOLA 1958-07-09 09:00:00 TS 13.3220 143.799 main 1752 1752 PPP______PPP__ WP061958 13.3575 143.845 65 1 13.2776 143.730 9 992 0 0 13.2200 143.795 3 53 993 13.3575 143.845 TC 65 13.3622 143.735 2 65 13.3575 143.845 64 983 240 9 320
1958189N11149 1958 48 WP MM VIOLA 1958-07-09 12:00:00 TS 13.6833 143.450 990 tokyo main 1802 1802 OOO______OOO__ jtwc_wp WP061958 13.7000 143.500 70 1 13.7000 143.300 9 990 0 0 0 13.6000 143.400 3 58 992 13.7000 143.500 TC 70 13.7000 143.500 3 70 13.7000 143.500 70 982 240 10 311
1958189N11149 1958 48 WP MM VIOLA 1958-07-09 15:00:00 TS 13.9475 143.067 main 1818 1818 PPP______PPP__ WP061958 13.9425 143.122 75 1 13.9423 142.957 9 990 0 0 13.9425 142.957 3 58 991 13.9425 143.122 TC 75 13.9727 143.119 3 73 13.9425 143.122 75 981 240 10 305
1958189N11149 1958 48 WP MM VIOLA 1958-07-09 18:00:00 TS 14.2255 142.647 990 tokyo main 1835 1821 OOO______OPO__ jtwc_wp WP061958 14.2000 142.700 80 1 14.2000 142.600 9 990 0 0 0 14.3000 142.500 3 58 990 14.2000 142.700 TC 80 14.2532 142.679 3 77 14.2000 142.700 80 981 240 11 306
1958189N11149 1958 48 WP MM VIOLA 1958-07-09 21:00:00 TS 14.5696 142.190 main 1823 1788 PPP______PPP__ WP061958 14.5326 142.235 82 1 14.5826 142.143 9 987 0 0 14.6550 142.070 3 63 988 14.5326 142.235 TC 82 14.5821 142.225 3 81 14.5326 142.235 82 981 240 12 313
1958189N11149 1958 48 WP MM VIOLA 1958-07-10 00:00:00 TS 15.0333 141.767 985 tokyo main 1789 1764 OOO______OOO__ jtwc_wp WP061958 15.0000 141.800 85 2 15.1000 141.700 9 985 0 0 0 15.1000 141.700 4 68 986 15.0000 141.800 TC 85 15.0000 141.800 4 85 15.0000 141.800 85 982 240 13 327
1958189N11149 1958 48 WP MM VIOLA 1958-07-10 03:00:00 TS 15.6740 141.449 main 1760 1750 PPP______PPP__ WP061958 15.6699 141.477 87 2 15.7699 141.377 9 982 0 0 15.7124 141.435 4 72 984 15.6699 141.477 TC 87 15.5523 141.452 4 88 15.6699 141.477 87 980 210 15 337
1958189N11149 1958 48 WP MM VIOLA 1958-07-10 06:00:00 TS 16.3825 141.173 980 tokyo main 1755 1738 OOO______OPO__ jtwc_wp WP061958 16.4000 141.200 90 2 16.5000 141.100 9 980 0 0 0 16.4000 141.200 4 77 983 16.4000 141.200 TC 90 16.1948 141.140 4 92 16.4000 141.200 90 978 180 15 338
1958189N11149 1958 48 WP MM VIOLA 1958-07-10 09:00:00 TS 17.0187 140.885 main 1741 1727 PPP______PPP__ WP061958 16.9999 140.915 95 2 17.1650 140.792 9 977 0 0 17.0574 140.915 4 82 980 16.9999 140.915 TC 95 16.8899 140.858 4 96 16.9999 140.915 95 976 180 14 336
1958189N11149 1958 48 WP MM VIOLA 1958-07-10 12:00:00 TS 17.6500 140.583 975 tokyo main 1734 1709 OOO______OOO__ jtwc_wp WP061958 17.6000 140.600 100 3 17.8000 140.500 9 975 0 0 0 17.7000 140.600 5 87 977 17.6000 140.600 TC 100 17.6000 140.600 4 100 17.6000 140.600 100 974 180 14 333
1958189N11149 1958 48 WP MM VIOLA 1958-07-10 15:00:00 TS 18.3050 140.211 main 1709 1635 PPP______PPP__ WP061958 18.2927 140.163 100 3 18.4000 140.235 9 972 0 0 18.3001 140.228 5 92 974 18.2927 140.163 TC 100 18.2516 140.313 4 100 18.2927 140.163 100 972 210 15 334
1958189N11149 1958 48 WP MM VIOLA 1958-07-10 18:00:00 TS 18.9688 139.892 970 tokyo main 1626 1557 OOO______OPO__ jtwc_wp WP061958 19.0000 139.800 100 3 19.0000 140.000 9 970 0 0 0 18.9000 139.900 5 97 972 19.0000 139.800 TC 100 18.9126 140.053 4 100 19.0000 139.800 100 971 240 14 341
1958189N11149 1958 48 WP MM VIOLA 1958-07-10 21:00:00 TS 19.5986 139.728 main 1557 1500 PPP______PPP__ WP061958 19.6274 139.689 100 3 19.6125 139.763 9 970 0 0 19.5049 139.697 5 101 969 19.6274 139.689 TC 100 19.5923 139.842 4 100 19.6274 139.689 100 970 240 13 351
1958189N11149 1958 48 WP MM VIOLA 1958-07-11 00:00:00 TS 20.2833 139.667 970 tokyo main 1490 1409 OOO______OOO__ jtwc_wp WP061958 20.3000 139.700 100 3 20.3000 139.600 9 970 0 0 0 20.2000 139.600 6 106 967 20.3000 139.700 TC 100 20.3000 139.700 4 100 20.3000 139.700 100 969 240 15 357
1958189N11149 1958 48 WP MM VIOLA 1958-07-11 03:00:00 TS 21.1202 139.634 main 1409 1336 PPP______PPP__ WP061958 21.1425 139.685 100 3 21.1425 139.555 9 967 0 0 21.0850 139.570 6 111 965 21.1425 139.685 TC 100 21.0662 139.624 4 100 21.1425 139.685 100 967 210 17 359
1958189N11149 1958 48 WP MM VIOLA 1958-07-11 06:00:00 TS 21.9762 139.654 965 tokyo main 1329 1253 OOO______OPO__ jtwc_wp WP061958 22.0000 139.700 100 3 22.0000 139.600 9 965 0 0 0 22.0000 139.600 6 116 964 22.0000 139.700 TC 100 21.8571 139.622 4 100 22.0000 139.700 100 965 180 16 2
1958189N11149 1958 48 WP MM VIOLA 1958-07-11 09:00:00 TS 22.7215 139.699 main 1253 1182 PPP______PPP__ WP061958 22.7225 139.735 100 3 22.7375 139.677 9 965 0 0 22.7799 139.628 6 111 966 22.7225 139.735 TC 100 22.6445 139.684 4 100 22.7225 139.735 100 965 180 15 5
1958189N11149 1958 48 WP MM VIOLA 1958-07-11 12:00:00 TS 23.4167 139.783 965 tokyo main 1182 1111 OOO______OOO__ jtwc_wp WP061958 23.4000 139.800 100 3 23.4000 139.800 9 965 0 0 0 23.5000 139.700 6 106 968 23.4000 139.800 TC 100 23.4000 139.800 4 100 23.4000 139.800 100 965 180 14 7
1958189N11149 1958 48 WP MM VIOLA 1958-07-11 15:00:00 TS 24.1133 139.874 main 1111 1052 PPP______PPP__ WP061958 24.1149 139.863 100 3 24.0075 139.943 9 965 0 0 24.2224 139.820 6 101 971 24.1149 139.863 TC 100 24.1054 139.894 4 100 24.1149 139.863 100 965 210 14 9
1958189N11149 1958 48 WP MM VIOLA 1958-07-11 18:00:00 TS 24.7789 140.024 965 tokyo main 1042 988 OOO______OPO__ jtwc_wp WP061958 24.8000 140.000 100 3 24.6000 140.100 9 965 0 0 0 24.9000 140.000 5 97 974 24.8000 140.000 TC 100 24.7736 140.045 4 100 24.8000 140.000 100 966 240 13 14
1958189N11149 1958 48 WP MM VIOLA 1958-07-11 21:00:00 TS 25.3961 140.234 main 988 941 PPP______PPP__ WP061958 25.4074 140.248 100 3 25.2346 140.191 9 967 0 0 25.5148 140.198 5 97 973 25.4074 140.248 TC 100 25.4051 140.273 4 100 25.4074 140.248 100 966 240 13 21
1958189N11149 1958 48 WP MM VIOLA 1958-07-12 00:00:00 TS 26.0000 140.550 970 tokyo main 946 903 OOO______OOO__ jtwc_wp WP061958 26.0000 140.600 100 3 25.9000 140.400 9 970 0 0 0 26.1000 140.500 5 97 972 26.0000 140.600 TC 100 26.0000 140.600 4 100 26.0000 140.600 100 967 240 14 28
1958189N11149 1958 48 WP MM VIOLA 1958-07-12 03:00:00 TS 26.6662 140.971 main 899 861 PPP______PPP__ WP061958 26.6797 140.998 97 3 26.6299 140.859 9 970 0 0 26.7222 140.925 5 92 973 26.6797 140.998 TC 97 26.6063 141.047 4 96 26.6797 140.998 97 967 240 15 34
1958189N11149 1958 48 WP MM VIOLA 1958-07-12 06:00:00 TS 27.2785 141.515 970 tokyo main 853 827 OOO______OPO__ jtwc_wp WP061958 27.3000 141.500 95 2 27.3000 141.500 9 970 0 0 0 27.3000 141.500 5 87 975 27.3000 141.500 TC 95 27.1709 141.592 4 92 27.3000 141.500 95 968 240 15 44
1958189N11149 1958 48 WP MM VIOLA 1958-07-12 09:00:00 TS 27.7564 142.172 main 821 803 PPP______PPP__ WP061958 27.7528 142.135 90 2 27.8100 142.220 9 972 0 0 27.7951 142.213 5 87 975 27.7528 142.135 TC 90 27.6749 142.191 4 88 27.7528 142.135 89 969 210 15 54
1958189N11149 1958 48 WP MM VIOLA 1958-07-12 12:00:00 TS 28.1333 142.867 975 tokyo main 809 792 OOO______OOO__ jtwc_wp WP061958 28.1000 142.800 85 2 28.2000 143.000 9 975 0 0 0 28.2000 143.000 5 87 976 28.1000 142.800 TC 85 28.1000 142.800 4 84 28.1000 142.800 84 970 180 14 59
1958189N11149 1958 48 WP MM VIOLA 1958-07-12 15:00:00 TS 28.4526 143.487 main 790 788 PPP______PPP__ WP061958 28.4296 143.365 77 1 28.5221 143.751 9 975 0 0 28.5221 143.751 5 87 975 28.4296 143.365 TC 77 28.3828 143.327 4 79 28.4296 143.365 77 971 180 12 62
1958189N11149 1958 48 WP MM VIOLA 1958-07-12 18:00:00 TS 28.7163 144.093 975 tokyo main 796 791 OOO______OPO__ jtwc_wp WP061958 28.7000 143.900 70 1 28.8000 144.500 9 975 0 0 0 28.8000 144.500 5 87 975 28.7000 143.900 TC 70 28.5977 143.855 4 74 28.7000 143.900 70 972 180 11 66
1958189N11149 1958 48 WP MM VIOLA 1958-07-12 21:00:00 TS 28.9252 144.674 main 807 803 PPP______PPP__ WP061958 28.8614 144.392 67 1 29.0765 145.221 9 972 0 0 29.0770 145.244 5 87 971 28.8614 144.392 TC 67 28.8138 144.405 4 69 28.8614 144.392 67 973 210 12 66
1958189N11149 1958 48 WP MM VIOLA 1958-07-13 00:00:00 TS 29.2000 145.333 970 tokyo main 811 811 OOO______OOO__ jtwc_wp WP061958 29.1000 145.000 65 1 29.4000 146.000 9 970 0 0 0 29.4000 146.000 5 87 967 29.1000 145.000 TC 65 29.1000 145.000 4 65 29.1000 145.000 65 975 240 15 62
1958189N11149 1958 48 WP MM VIOLA 1958-07-13 03:00:00 TS 29.6501 146.217 main 819 819 PPP______PPP__ WP061958 29.6067 145.955 62 0 29.7760 146.980 9 977 0 0 29.7973 146.801 5 77 973 29.6067 145.955 TC 62 29.5074 145.656 4 64 29.6067 145.955 62 976 240 19 57
1958189N11149 1958 48 WP MM VIOLA 1958-07-13 06:00:00 TS 30.2109 147.126 985 tokyo main 837 836 OOO______OPO__ jtwc_wp WP061958 30.2000 146.900 60 0 30.3000 147.900 9 985 0 0 0 30.3000 147.600 4 68 980 30.2000 146.900 TC 60 30.0172 146.368 4 63 30.2000 146.900 60 977 240 17 50
1958189N11149 1958 48 WP MM VIOLA 1958-07-13 09:00:00 TS 30.7635 147.763 main 841 833 PPP______PPP__ WP061958 30.6453 147.404 60 0 31.0539 148.518 9 987 0 0 30.9126 148.402 4 68 980 30.6453 147.404 TC 60 30.5934 147.121 4 62 30.6453 147.404 61 978 210 16 41
1958189N11149 1958 48 WP MM VIOLA 1958-07-13 12:00:00 TS 31.4200 148.360 990 tokyo main 842 836 OOO______OOO__ jtwc_wp WP061958 31.2000 147.900 60 0 31.9000 149.000 9 990 0 0 0 31.6000 149.100 4 68 980 31.2000 147.900 TC 60 31.2000 147.900 2 62 31.2000 147.900 62 980 180 20 38
1958189N11149 1958 48 WP MM VIOLA 1958-07-13 15:00:00 TS 32.2972 149.187 main 852 852 PPP______P_P__ WP061958 32.1401 148.904 60 0 32.7250 149.544 9 990 0 0 32.3220 149.626 4 63 985 32.1401 148.904 TC 60 2 32.0207 148.730 61 981 180 21 38
1958189N11149 1958 48 WP MM VIOLA 1958-07-13 18:00:00 TS 33.0941 149.894 990 tokyo main 873 868 OOO______O_O__ jtwc_wp WP061958 33.0000 149.800 60 0 33.4000 150.000 9 990 0 0 0 33.0000 150.000 3 58 990 33.0000 149.800 TC 60 2 33.0000 149.800 60 982 180 15 34
1958189N11149 1958 48 WP MM VIOLA 1958-07-13 21:00:00 TS 33.5010 150.158 main 883 876 PPP______P____ WP061958 33.3462 150.031 55 0 33.7671 150.289 9 992 0 0 33.5447 150.281 3 53 992 33.3462 150.031 TC 55 2 7 24
1958189N11149 1958 48 WP MM VIOLA 1958-07-14 00:00:00 MX 33.7500 150.250 995 tokyo main 882 879 OOO______O____ jtwc_wp WP061958 33.5000 150.000 50 0 34.0000 150.500 9 995 0 0 0 34.0000 150.500 9 48 995 33.5000 150.000 TC 50 6 21
1958189N11149 1958 48 WP MM VIOLA 1958-07-14 03:00:00 MX 34.0706 150.418 main 882 882 PPP______P____ WP061958 33.7724 150.085 47 0 34.3074 150.750 9 997 0 0 34.4299 150.750 9 48 995 33.7724 150.085 TC 47 7 26
1958189N11149 1958 48 WP MM VIOLA 1958-07-14 06:00:00 MX 34.3500 150.600 1000 tokyo main 892 892 OOO______O____ jtwc_wp WP061958 34.0000 150.200 45 0 34.6000 151.000 6 1000 0 0 0 34.8000 151.000 9 48 995 34.0000 150.200 TC 45 5 33
1958189N11149 1958 48 WP MM VIOLA 1958-07-14 09:00:00 MX 34.5106 150.759 main 908 906 PPP______P____ WP061958 34.0388 150.275 42 0 34.8424 151.243 6 1000 0 0 35.1224 151.243 9 43 996 34.0388 150.275 TC 42 5 45
1958189N11149 1958 48 WP MM VIOLA 1958-07-14 12:00:00 MX 34.7250 151.050 1000 tokyo main 930 929 OOO______O____ jtwc_wp WP061958 34.2000 150.600 40 0 35.1000 151.500 6 1000 0 0 0 35.4000 151.500 9 38 998 34.2000 150.600 TC 40 9 47
1958189N11149 1958 48 WP MM VIOLA 1958-07-14 15:00:00 MX 35.1575 151.603 main 961 961 PPP______P____ WP061958 34.7691 151.450 37 0 35.4499 151.778 6 999 0 0 35.6418 151.734 9 38 998 34.7691 151.450 TC 37 14 46
1958189N11149 1958 48 WP MM VIOLA 1958-07-14 18:00:00 MX 35.7000 152.271 998 tokyo main 990 985 OOO______O____ jtwc_wp WP061958 35.5000 152.500 35 0 35.8000 152.100 6 998 0 0 0 35.9000 152.100 9 38 998 35.5000 152.500 TC 35 14 45
1958189N11149 1958 48 WP MM VIOLA 1958-07-14 21:00:00 MX 36.1534 152.831 main 996 994 PPP______P____ WP061958 36.1771 153.407 32 -1 36.0481 152.374 6 998 0 0 36.2349 152.710 9 38 998 36.1771 153.407 TC 32 12 48
1958189N11149 1958 48 WP MM VIOLA 1958-07-15 00:00:00 MX 36.5200 153.400 998 tokyo main 1003 1000 OOO______O____ jtwc_wp WP061958 36.8000 154.200 30 -1 36.3000 152.900 6 998 0 0 0 36.6000 153.500 9 38 998 36.8000 154.200 TC 30 12 60
1958189N11149 1958 48 WP MM VIOLA 1958-07-15 03:00:00 ET 36.7430 154.105 main 1027 1025 _PP___________ WP061958 -1 36.5753 153.903 6 999 0 0 36.9107 154.306 9 33 1000 TC 16 67
1958189N11149 1958 48 WP MM VIOLA 1958-07-15 06:00:00 ET 37.1500 155.250 1000 tokyo main 1043 1034 _OO___________ -1 37.0000 155.200 6 1000 0 0 0 37.3000 155.300 9 29 1002 22 62
1958189N11149 1958 48 WP MM VIOLA 1958-07-15 09:00:00 ET 37.7689 156.481 main 1033 1029 _PP___________ -1 37.6861 156.475 6 1003 0 0 37.8517 156.488 9 1004 26 58
1958189N11149 1958 48 WP MM VIOLA 1958-07-15 12:00:00 ET 38.5000 158.000 1006 tokyo main 1042 1042 _OO___________ -1 38.5000 158.000 6 1006 0 0 0 38.5000 158.000 9 1006 30 62
1958189N11149 1958 48 WP MM VIOLA 1958-07-15 15:00:00 ET 39.2197 159.906 main 1087 1084 _PP___________ -1 39.2882 159.908 6 1006 0 0 39.1511 159.903 9 1006 34 66
1958189N11149 1958 48 WP MM VIOLA 1958-07-15 18:00:00 ET 39.9000 162.000 1006 tokyo main 1163 1163 _OO___________ -1 40.0000 162.000 6 1006 0 0 0 39.8000 162.000 9 1006 32 70
1958189N11149 1958 48 WP MM VIOLA 1958-07-15 21:00:00 ET 40.3189 163.841 main 1257 1256 _PP___________ -1 40.4622 163.933 6 1006 0 0 40.1756 163.749 9 1006 32 70
1958189N11149 1958 48 WP MM VIOLA 1958-07-16 00:00:00 ET 41.0000 166.000 1006 tokyo main 1284 1284 _OO___________ -1 41.0000 166.000 6 1006 0 0 0 41.0000 166.000 9 1006 47 62
1958189N11149 1958 48 WP MM VIOLA 1958-07-16 03:00:00 ET 42.5066 169.335 main 1323 1323 _PP___________ -1 41.8728 168.552 6 1005 0 0 43.1405 170.117 9 1005 56 59
1958189N11149 1958 48 WP MM VIOLA 1958-07-16 06:00:00 ET 43.9500 172.550 1004 tokyo main 1359 1359 _OO___________ -1 42.9000 171.100 6 1004 0 0 0 45.0000 174.000 9 1004 40 59
1958189N11149 1958 48 WP MM VIOLA 1958-07-16 09:00:00 ET 44.5535 174.139 main 1384 1384 _PP___________ -1 43.9619 173.281 6 1004 0 0 45.1451 174.997 9 1004 20 59
1958189N11149 1958 48 WP MM VIOLA 1958-07-16 12:00:00 ET 45.0000 175.000 1004 tokyo main 1401 1341 _OO___________ -1 45.0000 175.000 6 1004 0 0 0 45.0000 175.000 9 1004 19 50
1958189N11149 1958 48 WP MM VIOLA 1958-07-16 15:00:00 ET 45.7560 176.181 main 1328 1223 _PP___________ -1 45.8311 176.298 6 1003 0 0 45.6810 176.064 9 1003 22 39
1958189N11149 1958 48 WP MM VIOLA 1958-07-16 18:00:00 ET 46.7000 177.000 1002 tokyo main 1216 1123 _OO___________ -1 46.7000 177.000 6 1002 0 0 0 46.7000 177.000 9 1002 23 17
1958189N11149 1958 48 WP MM VIOLA 1958-07-16 21:00:00 ET 47.9760 177.158 main 1117 1071 _PP___________ -1 47.9760 177.158 6 1003 0 0 47.9760 177.158 9 1002 23 0
1958189N11149 1958 48 WP MM VIOLA 1958-07-17 00:00:00 ET 49.0000 177.000 1004 tokyo main 1071 1060 _OO___________ -1 49.0000 177.000 6 1004 0 0 0 49.0000 177.000 9 1002 13 354
1958189N11149 1958 48 WP MM VIOLA 1958-07-17 03:00:00 ET 49.2454 176.946 main 1067 1060 _PP___________ -1 49.2454 176.946 6 1003 0 0 49.2454 176.946 9 1002 0 0
1958189N11149 1958 48 WP MM VIOLA 1958-07-17 06:00:00 ET 49.0000 177.000 1002 tokyo main 1071 _OO___________ -1 49.0000 177.000 6 1002 0 0 0 49.0000 177.000 9 1002 5 173

Digital Typhoon Data and Search

About IBTrACS Database

This database is a web-friendly format of International Best Track Archive for Climate Stewardship (IBTrACS), a global best track data archive curated by NOAA dating back to 1842.

Updated: 2021-12-06